createdAt,value
2019-03-06T00:00:20.509Z,5.03
2019-03-06T00:03:01.584Z,3.90
2019-03-06T00:05:42.352Z,4.93
2019-03-06T00:08:22.676Z,6.03
2019-03-06T00:11:03.237Z,4.53
2019-03-06T00:13:44.044Z,5.33
2019-03-06T00:16:24.601Z,5.50
2019-03-06T00:19:05.050Z,5.40
2019-03-06T00:21:45.657Z,5.13
2019-03-06T00:24:26.689Z,4.63
2019-03-06T00:27:07.291Z,6.47
2019-03-06T00:29:48.005Z,5.43
2019-03-06T00:32:28.608Z,7.23
2019-03-06T00:35:28.633Z,6.33
2019-03-06T00:38:09.465Z,8.83
2019-03-06T00:40:55.081Z,8.77
2019-03-06T00:43:35.872Z,7.07
2019-03-06T00:46:16.490Z,6.90
2019-03-06T00:48:57.257Z,8.03
2019-03-06T00:51:37.814Z,9.03
2019-03-06T00:54:18.592Z,6.87
2019-03-06T00:56:59.328Z,6.47
2019-03-06T00:59:39.975Z,6.13
2019-03-06T01:02:20.705Z,6.80
2019-03-06T01:05:01.621Z,7.73
2019-03-06T01:07:42.483Z,8.03
2019-03-06T01:10:22.852Z,9.70
2019-03-06T01:13:03.181Z,6.53
2019-03-06T01:15:43.629Z,8.10
2019-03-06T01:18:24.339Z,6.77
2019-03-06T01:21:05.144Z,6.73
2019-03-06T01:23:45.689Z,7.03
2019-03-06T01:26:26.263Z,7.40
2019-03-06T01:29:06.802Z,7.90
2019-03-06T01:31:47.733Z,8.40
2019-03-06T01:34:47.469Z,7.47
2019-03-06T01:37:32.484Z,8.37
2019-03-06T01:40:15.128Z,10.17
2019-03-06T01:42:59.684Z,9.57
2019-03-06T01:45:40.064Z,7.63
2019-03-06T01:48:20.663Z,7.77
2019-03-06T01:51:01.763Z,7.43
2019-03-06T01:53:42.436Z,8.30
2019-03-06T01:56:23.279Z,7.83
2019-03-06T01:59:03.785Z,8.30
2019-03-06T02:01:44.604Z,7.90
2019-03-06T02:04:25.035Z,8.33
2019-03-06T02:07:05.780Z,8.57
2019-03-06T02:09:46.418Z,7.80
2019-03-06T02:12:26.899Z,10.27
2019-03-06T02:15:07.531Z,8.00
2019-03-06T02:17:36.111Z,8.47
2019-03-06T02:20:23.872Z,7.90
2019-03-06T02:23:11.616Z,8.47
2019-03-06T02:25:59.361Z,7.50
2019-03-06T02:28:47.188Z,7.83
2019-03-06T02:31:34.947Z,7.53
2019-03-06T02:34:22.802Z,8.97
2019-03-06T02:37:10.545Z,8.50
2019-03-06T02:39:58.291Z,8.93
2019-03-06T02:42:47.756Z,7.80
2019-03-06T02:45:35.515Z,8.57
2019-03-06T02:48:15.715Z,9.40
2019-03-06T02:50:56.563Z,8.27
2019-03-06T02:53:37.177Z,8.67
2019-03-06T02:56:17.943Z,8.77
2019-03-06T02:59:03.329Z,10.53
2019-03-06T03:01:45.524Z,9.93
2019-03-06T03:07:20.976Z,9.37
2019-03-06T03:10:01.661Z,10.80
2019-03-06T03:12:42.170Z,11.43
2019-03-06T03:15:22.956Z,10.73
2019-03-06T03:18:03.599Z,11.27
2019-03-06T03:20:44.671Z,10.83
2019-03-06T03:23:25.713Z,11.73
2019-03-06T03:26:06.654Z,12.20
2019-03-06T03:28:47.292Z,12.80
2019-03-06T03:31:27.732Z,12.40
2019-03-06T03:34:08.274Z,12.00
2019-03-06T03:39:31.598Z,12.70
2019-03-06T03:42:12.263Z,12.73
2019-03-06T03:44:52.881Z,12.27
2019-03-06T03:47:33.582Z,12.13
2019-03-06T03:50:14.245Z,12.20
2019-03-06T03:52:54.936Z,13.10
2019-03-06T03:55:35.524Z,12.83
2019-03-06T03:58:16.582Z,11.73
2019-03-06T04:00:57.406Z,11.90
2019-03-06T04:03:38.093Z,12.20
2019-03-06T04:06:18.756Z,12.00
2019-03-06T04:08:59.351Z,15.00
2019-03-06T04:11:39.866Z,14.63
2019-03-06T04:14:20.903Z,12.40
2019-03-06T04:17:01.704Z,13.47
2019-03-06T04:19:42.216Z,12.40
2019-03-06T04:22:22.889Z,11.63
2019-03-06T04:25:03.424Z,13.07
2019-03-06T04:27:44.270Z,12.50
2019-03-06T04:30:25.213Z,11.37
2019-03-06T04:33:06.102Z,10.33
2019-03-06T04:35:46.333Z,11.37
2019-03-06T04:38:26.919Z,11.60
2019-03-06T04:41:10.145Z,11.97
2019-03-06T04:43:50.780Z,10.80
2019-03-06T04:46:31.694Z,9.90
2019-03-06T04:49:12.797Z,11.03
2019-03-06T04:51:53.632Z,12.90
2019-03-06T04:54:34.188Z,9.10
2019-03-06T04:57:15.137Z,9.30
2019-03-06T04:59:55.889Z,8.60
2019-03-06T05:02:36.776Z,9.50
2019-03-06T05:05:17.303Z,11.23
2019-03-06T05:07:58.311Z,8.70
2019-03-06T05:10:39.172Z,9.37
2019-03-06T05:13:19.947Z,9.40
2019-03-06T05:16:00.673Z,8.83
2019-03-06T05:18:45.956Z,9.80
2019-03-06T05:21:26.279Z,9.70
2019-03-06T05:24:06.939Z,9.00
2019-03-06T05:26:47.557Z,9.43
2019-03-06T05:29:28.513Z,8.27
2019-03-06T05:32:09.412Z,9.27
2019-03-06T05:34:50.468Z,10.03
2019-03-06T05:37:31.689Z,10.43
2019-03-06T05:40:12.324Z,9.47
2019-03-06T05:42:52.828Z,11.30
2019-03-06T05:45:33.668Z,9.70
2019-03-06T05:48:14.476Z,10.00
2019-03-06T05:53:36.968Z,10.23
2019-03-06T05:56:17.495Z,9.83
2019-03-06T05:58:58.148Z,8.47
2019-03-06T06:01:38.548Z,11.47
2019-03-06T06:04:19.327Z,9.93
2019-03-06T06:07:00.036Z,10.40
2019-03-06T06:09:40.701Z,10.27
2019-03-06T06:12:21.170Z,12.03
2019-03-06T06:15:02.258Z,9.30
2019-03-06T06:17:43.262Z,9.50
2019-03-06T06:20:22.198Z,9.17
2019-03-06T06:26:08.232Z,9.07
2019-03-06T06:28:56.156Z,9.43
2019-03-06T06:31:43.900Z,10.13
2019-03-06T06:34:31.635Z,8.73
2019-03-06T06:37:19.389Z,8.63
2019-03-06T06:40:27.849Z,7.47
2019-03-06T06:43:15.605Z,9.33
2019-03-06T06:46:03.371Z,7.90
2019-03-06T06:48:51.130Z,7.60
2019-03-06T06:51:58.205Z,7.03
2019-03-06T06:55:05.277Z,8.53
2019-03-06T06:58:12.343Z,9.07
2019-03-06T07:03:49.758Z,7.00
2019-03-06T07:06:31.654Z,6.57
2019-03-06T07:09:12.956Z,8.90
2019-03-06T07:11:53.302Z,6.17
2019-03-06T07:15:00.330Z,6.90
2019-03-06T07:24:00.110Z,5.67
2019-03-06T07:27:07.060Z,5.33
2019-03-06T07:30:14.000Z,4.30
2019-03-06T07:36:16.257Z,3.63
2019-03-06T07:39:24.728Z,3.40
2019-03-06T07:45:28.311Z,3.20
2019-03-06T07:51:31.915Z,4.47
2019-03-06T07:54:38.601Z,3.23
2019-03-06T07:57:27.998Z,2.70
2019-03-06T08:00:15.811Z,4.43
2019-03-06T08:02:56.876Z,4.13
2019-03-06T08:05:37.638Z,3.53
2019-03-06T08:08:18.398Z,4.03
2019-03-06T08:10:59.459Z,5.70
2019-03-06T08:13:42.191Z,3.10
2019-03-06T08:16:28.519Z,2.70
2019-03-06T08:19:35.466Z,3.50
2019-03-06T08:22:03.373Z,4.57
2019-03-06T08:25:10.329Z,3.97
2019-03-06T08:27:58.077Z,4.33
2019-03-06T08:31:05.025Z,10.07
2019-03-06T08:33:52.788Z,5.57
2019-03-06T08:36:40.540Z,4.67
2019-03-06T08:39:28.297Z,3.63
2019-03-06T08:42:16.072Z,2.27
2019-03-06T08:45:24.631Z,2.70
2019-03-06T08:48:31.644Z,2.80
2019-03-06T08:54:33.443Z,3.70
2019-03-06T08:57:40.380Z,3.40
2019-03-06T09:00:47.328Z,3.80
2019-03-06T09:03:46.788Z,3.43
2019-03-06T09:06:32.475Z,2.97
2019-03-06T09:09:17.755Z,3.27
2019-03-06T09:12:03.453Z,4.10
2019-03-06T09:14:45.300Z,3.50
2019-03-06T09:17:27.628Z,3.13
2019-03-06T09:25:59.960Z,2.90
2019-03-06T09:28:41.932Z,2.57
2019-03-06T09:31:24.308Z,2.90
2019-03-06T09:34:09.377Z,2.13
2019-03-06T09:43:07.657Z,2.57
2019-03-06T09:45:55.264Z,2.20
2019-03-06T09:51:56.752Z,2.40
2019-03-06T09:57:59.064Z,2.03
2019-03-06T10:00:40.924Z,3.07
2019-03-06T10:03:41.012Z,3.00
2019-03-06T10:06:41.255Z,2.07
2019-03-06T10:09:41.560Z,1.50
2019-03-06T10:12:23.404Z,2.07
2019-03-06T10:15:09.170Z,2.27
2019-03-06T10:20:51.684Z,3.13
2019-03-06T10:23:32.365Z,2.57
2019-03-06T10:26:13.132Z,2.13
2019-03-06T10:28:53.632Z,2.03
2019-03-06T10:31:34.609Z,2.87
2019-03-06T10:34:03.087Z,2.63
2019-03-06T10:36:31.580Z,2.27
2019-03-06T10:39:19.404Z,2.50
2019-03-06T10:42:07.240Z,2.37
2019-03-06T10:44:56.735Z,2.83
2019-03-06T10:47:44.577Z,2.30
2019-03-06T10:50:32.412Z,3.17
2019-03-06T10:53:20.246Z,3.57
2019-03-06T10:56:00.657Z,3.67
2019-03-06T10:58:41.304Z,3.00
2019-03-06T11:01:21.724Z,2.00
2019-03-06T11:04:21.907Z,1.90
2019-03-06T11:07:02.254Z,2.53
2019-03-06T11:09:42.870Z,2.20
2019-03-06T11:12:11.428Z,2.73
2019-03-06T11:14:59.191Z,2.03
2019-03-06T11:20:40.917Z,2.20
2019-03-06T11:23:28.739Z,2.37
2019-03-06T11:26:16.490Z,3.00
2019-03-06T11:29:04.707Z,3.60
2019-03-06T11:31:52.649Z,3.63
2019-03-06T11:34:40.574Z,4.10
2019-03-06T11:37:28.346Z,3.17
2019-03-06T11:40:16.732Z,1.93
2019-03-06T11:43:25.497Z,2.87
2019-03-06T11:46:13.317Z,3.30
2019-03-06T11:49:01.068Z,2.70
2019-03-06T11:51:48.820Z,4.63
2019-03-06T11:54:36.572Z,2.73
2019-03-06T11:57:17.354Z,2.20
2019-03-06T11:59:57.960Z,2.77
2019-03-06T12:02:26.540Z,2.27
2019-03-06T12:05:14.369Z,3.40
2019-03-06T12:08:02.372Z,3.33
2019-03-06T12:10:50.710Z,2.97
2019-03-06T12:13:38.813Z,2.33
2019-03-06T12:16:28.369Z,3.13
2019-03-06T12:22:14.618Z,2.90
2019-03-06T12:24:43.111Z,2.57
2019-03-06T12:27:30.877Z,2.60
2019-03-06T12:30:18.895Z,4.20
2019-03-06T12:33:06.822Z,2.87
2019-03-06T12:35:54.669Z,2.43
2019-03-06T12:38:42.480Z,2.97
2019-03-06T12:41:30.232Z,3.40
2019-03-06T12:44:17.996Z,2.90
2019-03-06T12:47:05.748Z,2.50
2019-03-06T12:49:53.530Z,2.17
2019-03-06T12:52:41.294Z,4.37
2019-03-06T12:55:29.196Z,3.47
2019-03-06T12:58:09.916Z,5.03
2019-03-06T13:00:50.877Z,2.20
2019-03-06T13:03:31.848Z,3.17
2019-03-06T13:06:12.605Z,3.20
2019-03-06T13:08:53.485Z,3.47
2019-03-06T13:11:34.227Z,2.93
2019-03-06T13:14:15.003Z,4.87
2019-03-06T13:16:55.373Z,2.50
2019-03-06T13:19:36.018Z,3.70
2019-03-06T13:22:16.903Z,2.10
2019-03-06T13:24:57.583Z,2.40
2019-03-06T13:27:38.372Z,2.40
2019-03-06T13:30:28.060Z,2.33
2019-03-06T13:33:35.011Z,2.53
2019-03-06T13:36:23.012Z,2.10
2019-03-06T13:39:10.828Z,3.77
2019-03-06T13:41:58.652Z,2.20
2019-03-06T13:44:46.476Z,2.77
2019-03-06T13:47:14.884Z,2.07
2019-03-06T13:50:02.648Z,4.87
2019-03-06T13:52:50.475Z,2.97
2019-03-06T13:55:38.239Z,3.40
2019-03-06T13:58:26.064Z,2.47
2019-03-06T14:01:14.305Z,2.77
2019-03-06T14:04:03.808Z,2.43
2019-03-06T14:06:51.564Z,2.33
2019-03-06T14:09:39.388Z,2.50
2019-03-06T14:12:27.219Z,2.80
2019-03-06T14:15:15.634Z,4.13
2019-03-06T14:18:03.767Z,3.87
2019-03-06T14:20:51.587Z,3.80
2019-03-06T14:23:39.358Z,3.73
2019-03-06T14:26:20.288Z,4.53
2019-03-06T14:29:00.748Z,2.33
2019-03-06T14:31:41.343Z,3.10
2019-03-06T14:37:03.677Z,3.77
2019-03-06T14:39:51.512Z,3.03
2019-03-06T14:42:39.343Z,2.77
2019-03-06T14:45:27.236Z,3.30
2019-03-06T14:48:14.996Z,2.50
2019-03-06T14:51:02.942Z,2.87
2019-03-06T14:53:50.770Z,2.97
2019-03-06T14:56:38.537Z,4.57
2019-03-06T14:59:26.293Z,3.73
2019-03-06T15:02:14.136Z,2.47
2019-03-06T15:05:01.883Z,3.17
2019-03-06T15:07:49.644Z,2.53
2019-03-06T15:10:43.046Z,2.50
2019-03-06T15:13:26.875Z,4.53
2019-03-06T15:16:14.809Z,2.57
2019-03-06T15:19:02.565Z,3.00
2019-03-06T15:21:50.317Z,4.37
2019-03-06T15:24:31.176Z,4.23
2019-03-06T15:27:09.880Z,2.50
2019-03-06T15:32:51.050Z,3.57
2019-03-06T15:35:39.184Z,3.00
2019-03-06T15:38:26.959Z,2.70
2019-03-06T15:41:14.712Z,4.87
2019-03-06T15:44:02.482Z,4.07
2019-03-06T15:46:50.312Z,3.37
2019-03-06T15:49:38.081Z,3.87
2019-03-06T15:52:25.839Z,2.90
2019-03-06T15:55:14.151Z,4.00
2019-03-06T15:58:01.904Z,3.00
2019-03-06T16:00:51.376Z,6.17
2019-03-06T16:03:39.220Z,2.83
2019-03-06T16:06:27.037Z,3.53
2019-03-06T16:09:14.804Z,4.53
2019-03-06T16:12:02.712Z,3.90
2019-03-06T16:14:50.838Z,6.07
2019-03-06T16:17:38.751Z,3.07
2019-03-06T16:20:26.662Z,4.60
2019-03-06T16:23:14.968Z,3.10
2019-03-06T16:25:55.244Z,4.10
2019-03-06T16:28:35.898Z,4.10
2019-03-06T16:31:16.565Z,6.90
2019-03-06T16:33:57.452Z,5.03
2019-03-06T16:36:38.303Z,3.47
2019-03-06T16:39:20.213Z,3.20
2019-03-06T16:42:01.097Z,3.70
2019-03-06T16:44:41.917Z,4.50
2019-03-06T16:47:22.508Z,6.00
2019-03-06T16:50:03.090Z,4.40
2019-03-06T16:52:43.598Z,3.17
2019-03-06T16:55:24.347Z,4.43
2019-03-06T16:58:05.028Z,3.93
2019-03-06T17:00:45.724Z,3.87
2019-03-06T17:03:26.568Z,4.80
2019-03-06T17:05:55.055Z,5.40
2019-03-06T17:08:42.838Z,4.27
2019-03-06T17:11:30.699Z,3.47
2019-03-06T17:14:18.523Z,3.20
2019-03-06T17:17:06.352Z,6.97
2019-03-06T17:19:54.176Z,5.57
2019-03-06T17:22:42.018Z,5.07
2019-03-06T17:25:23.033Z,4.10
2019-03-06T17:28:04.123Z,6.07
2019-03-06T17:30:44.867Z,5.10
2019-03-06T17:33:25.801Z,4.83
2019-03-06T17:36:06.657Z,6.53
2019-03-06T17:38:47.724Z,5.87
2019-03-06T17:41:29.036Z,4.90
2019-03-06T17:44:11.169Z,6.63
2019-03-06T17:46:51.622Z,5.13
2019-03-06T17:49:32.395Z,6.10
2019-03-06T17:52:12.855Z,7.70
2019-03-06T17:54:53.632Z,6.27
2019-03-06T17:57:34.383Z,9.63
2019-03-06T18:00:17.158Z,7.97
2019-03-06T18:02:56.670Z,8.60
2019-03-06T18:05:44.492Z,7.30
2019-03-06T18:08:32.319Z,6.00
2019-03-06T18:11:00.915Z,5.83
2019-03-06T18:13:48.740Z,5.23
2019-03-06T18:16:37.209Z,9.17
2019-03-06T18:19:25.969Z,8.30
2019-03-06T18:22:13.892Z,6.27
2019-03-06T18:25:01.832Z,7.70
2019-03-06T18:27:42.889Z,10.10
2019-03-06T18:30:23.854Z,7.80
2019-03-06T18:33:04.724Z,6.43
2019-03-06T18:35:45.523Z,8.23
2019-03-06T18:38:26.204Z,8.87
2019-03-06T18:41:06.875Z,7.73
2019-03-06T18:43:47.904Z,12.60
2019-03-06T18:46:28.745Z,13.20
2019-03-06T18:49:09.443Z,9.33
2019-03-06T18:51:50.515Z,14.00
2019-03-06T18:54:31.131Z,10.93
2019-03-06T18:57:13.415Z,12.07
2019-03-06T18:59:53.816Z,9.97
2019-03-06T19:02:36.378Z,10.80
2019-03-06T19:05:17.556Z,9.23
2019-03-06T19:07:58.208Z,15.07
2019-03-06T19:10:38.659Z,10.00
2019-03-06T19:13:19.675Z,11.97
2019-03-06T19:15:48.223Z,12.23
2019-03-06T19:18:35.976Z,10.50
2019-03-06T19:21:23.825Z,11.03
2019-03-06T19:24:11.662Z,11.00
2019-03-06T19:26:54.229Z,15.43
2019-03-06T19:29:34.940Z,12.73
2019-03-06T19:32:15.901Z,13.63
2019-03-06T19:34:56.813Z,12.70
2019-03-06T19:37:37.569Z,12.10
2019-03-06T19:40:18.375Z,8.87
2019-03-06T19:42:58.969Z,7.77
2019-03-06T19:45:39.541Z,13.30
2019-03-06T19:48:20.356Z,11.67
2019-03-06T19:51:00.997Z,9.97
2019-03-06T19:53:41.679Z,8.83
2019-03-06T19:56:22.704Z,8.47
2019-03-06T19:59:03.307Z,7.40
2019-03-06T20:01:45.847Z,8.47
2019-03-06T20:04:26.119Z,8.87
2019-03-06T20:07:06.854Z,10.20
2019-03-06T20:09:47.647Z,7.80
2019-03-06T20:12:28.350Z,6.20
2019-03-06T20:15:08.880Z,8.00
2019-03-06T20:17:49.877Z,7.27
2019-03-06T20:20:30.508Z,5.80
2019-03-06T20:23:11.366Z,5.87
2019-03-06T20:25:54.916Z,4.73
2019-03-06T20:28:35.727Z,7.60
2019-03-06T20:31:17.159Z,7.90
2019-03-06T20:33:58.084Z,4.27
2019-03-06T20:36:39.272Z,7.40
2019-03-06T20:39:20.207Z,4.97
2019-03-06T20:42:01.466Z,3.87
2019-03-06T20:44:42.161Z,4.33
2019-03-06T20:47:22.677Z,7.50
2019-03-06T20:50:03.402Z,4.67
2019-03-06T20:52:44.296Z,7.03
2019-03-06T20:55:25.261Z,5.43
2019-03-06T20:58:06.475Z,5.90
2019-03-06T21:00:47.357Z,6.13
2019-03-06T21:03:27.824Z,4.03
2019-03-06T21:06:08.133Z,5.07
2019-03-06T21:08:48.727Z,6.00
2019-03-06T21:11:29.449Z,6.17
2019-03-06T21:14:10.266Z,6.67
2019-03-06T21:16:51.385Z,4.63
2019-03-06T21:19:31.999Z,4.60
2019-03-06T21:22:13.049Z,4.67
2019-03-06T21:24:54.176Z,4.97
2019-03-06T21:27:34.785Z,5.30
2019-03-06T21:30:15.888Z,4.47
2019-03-06T21:32:57.116Z,6.53
2019-03-06T21:35:37.911Z,3.63
2019-03-06T21:38:18.412Z,6.07
2019-03-06T21:40:57.213Z,4.30
2019-03-06T21:43:44.961Z,4.57
2019-03-06T21:46:33.089Z,5.40
2019-03-06T21:49:20.835Z,6.07
2019-03-06T21:52:08.668Z,5.47
2019-03-06T21:54:56.505Z,5.20
2019-03-06T21:57:44.330Z,10.80
2019-03-06T22:00:32.162Z,9.77
2019-03-06T22:03:20.028Z,5.63
2019-03-06T22:06:08.138Z,3.87
2019-03-06T22:08:55.956Z,4.07
2019-03-06T22:11:43.704Z,4.87
2019-03-06T22:14:31.471Z,9.20
2019-03-06T22:17:19.307Z,4.67
2019-03-06T22:23:21.588Z,3.23
2019-03-06T22:26:09.325Z,6.03
2019-03-06T22:28:57.164Z,3.10
2019-03-06T22:31:37.565Z,4.20
2019-03-06T22:34:18.560Z,3.80
2019-03-06T22:36:59.278Z,6.33
2019-03-06T22:39:40.283Z,5.87
2019-03-06T22:42:20.697Z,8.13
2019-03-06T22:45:02.055Z,4.73
2019-03-06T22:47:43.196Z,5.13
2019-03-06T22:50:24.316Z,4.17
2019-03-06T22:53:05.226Z,3.90
2019-03-06T22:55:45.568Z,4.67
2019-03-06T22:58:26.552Z,5.53
2019-03-06T23:01:07.539Z,5.23
2019-03-06T23:03:48.605Z,5.10
2019-03-06T23:06:29.315Z,3.87
2019-03-06T23:09:10.523Z,6.63
2019-03-06T23:11:50.796Z,5.03
2019-03-06T23:14:31.431Z,4.37
2019-03-06T23:16:59.842Z,4.63
2019-03-06T23:19:47.609Z,3.03
2019-03-06T23:22:35.429Z,5.30
2019-03-06T23:25:23.176Z,5.83
2019-03-06T23:28:10.940Z,5.03
2019-03-06T23:30:51.190Z,5.37
2019-03-06T23:33:31.884Z,4.13
2019-03-06T23:36:12.440Z,4.83
2019-03-06T23:38:53.430Z,5.23
2019-03-06T23:41:33.933Z,5.40
2019-03-06T23:44:14.611Z,4.53
2019-03-06T23:46:55.251Z,3.93
2019-03-06T23:49:37.056Z,6.00
2019-03-06T23:52:19.141Z,4.00
2019-03-06T23:55:00.280Z,4.77
2019-03-06T23:57:41.194Z,4.30
